createdAt,value
2023-02-02T00:00:48.954Z,1.84
2023-02-02T00:01:49.056Z,1.68
2023-02-02T00:02:49.291Z,1.92
2023-02-02T00:03:49.422Z,1.84
2023-02-02T00:04:49.455Z,1.92
2023-02-02T00:05:49.561Z,2
2023-02-02T00:06:49.706Z,1.84
2023-02-02T00:07:49.805Z,1.68
2023-02-02T00:08:49.904Z,1.68
2023-02-02T00:09:50.007Z,1.68
2023-02-02T00:10:50.108Z,1.68
2023-02-02T00:11:50.216Z,1.68
2023-02-02T00:12:50.363Z,1.68
2023-02-02T00:13:50.463Z,1.84
2023-02-02T00:14:50.594Z,1.84
2023-02-02T00:15:50.763Z,1.84
2023-02-02T00:16:50.871Z,1.84
2023-02-02T00:17:51.022Z,1.84
2023-02-02T00:18:51.148Z,1.84
2023-02-02T00:19:51.273Z,2
2023-02-02T00:20:51.426Z,2
2023-02-02T00:21:51.575Z,1.92
2023-02-02T00:22:51.724Z,1.92
2023-02-02T00:23:51.878Z,1.92
2023-02-02T00:24:52.033Z,1.92
2023-02-02T00:25:52.178Z,1.68
2023-02-02T00:26:52.410Z,1.84
2023-02-02T00:27:52.386Z,1.84
2023-02-02T00:28:52.483Z,1.6
2023-02-02T00:29:52.591Z,1.68
2023-02-02T00:30:52.718Z,1.84
2023-02-02T00:31:52.922Z,1.84
2023-02-02T00:32:53.014Z,1.84
2023-02-02T00:33:53.150Z,1.84
2023-02-02T00:34:53.302Z,1.84
2023-02-02T00:35:53.399Z,1.68
2023-02-02T00:36:53.510Z,1.84
2023-02-02T00:37:53.652Z,1.84
2023-02-02T00:38:53.799Z,1.84
2023-02-02T00:39:53.908Z,1.68
2023-02-02T00:40:54.009Z,1.68
2023-02-02T00:41:54.101Z,1.84
2023-02-02T00:42:54.200Z,1.68
2023-02-02T00:43:54.312Z,1.84
2023-02-02T00:44:54.455Z,1.84
2023-02-02T00:45:54.579Z,1.84
2023-02-02T00:46:54.714Z,1.84
2023-02-02T00:47:54.810Z,2
2023-02-02T00:48:54.909Z,2
2023-02-02T00:49:55.066Z,1.92
2023-02-02T00:50:55.164Z,1.84
2023-02-02T00:51:55.330Z,1.84
2023-02-02T00:52:55.474Z,1.84
2023-02-02T00:53:55.572Z,1.84
2023-02-02T00:54:55.723Z,1.84
2023-02-02T00:55:55.881Z,1.84
2023-02-02T00:56:56.023Z,1.92
2023-02-02T00:57:56.175Z,1.92
2023-02-02T00:58:56.276Z,2
2023-02-02T00:59:56.379Z,1.92
2023-02-02T01:00:56.537Z,2
2023-02-02T01:01:56.701Z,2
2023-02-02T01:02:56.782Z,1.92
2023-02-02T01:03:56.887Z,1.92
2023-02-02T01:04:56.982Z,1.92
2023-02-02T01:05:57.099Z,1.92
2023-02-02T01:06:57.237Z,1.92
2023-02-02T01:07:57.336Z,1.92
2023-02-02T01:08:57.442Z,1.84
2023-02-02T01:09:57.541Z,1.92
2023-02-02T01:10:57.646Z,1.92
2023-02-02T01:11:57.751Z,1.84
2023-02-02T01:12:57.897Z,1.92
2023-02-02T01:13:58.080Z,1.92
2023-02-02T01:14:58.201Z,2
2023-02-02T01:15:58.361Z,1.92
2023-02-02T01:16:58.456Z,1.92
2023-02-02T01:17:58.553Z,2.08
2023-02-02T01:18:58.704Z,1.92
2023-02-02T01:19:58.863Z,1.92
2023-02-02T01:20:59.004Z,1.84
2023-02-02T01:21:59.106Z,1.84
2023-02-02T01:22:59.208Z,1.92
2023-02-02T01:23:59.321Z,1.84
2023-02-02T01:24:59.464Z,1.84
2023-02-02T01:25:59.611Z,1.84
2023-02-02T01:26:59.766Z,1.84
2023-02-02T01:27:59.917Z,1.84
2023-02-02T01:29:00.019Z,1.68
2023-02-02T01:30:00.168Z,1.84
2023-02-02T01:31:00.335Z,1.92
2023-02-02T01:32:00.514Z,1.92
2023-02-02T01:33:00.580Z,1.68
2023-02-02T01:34:00.728Z,1.68
2023-02-02T01:35:00.836Z,1.68
2023-02-02T01:36:00.930Z,1.84
2023-02-02T01:37:01.076Z,1.92
2023-02-02T01:38:01.209Z,1.84
2023-02-02T01:39:01.336Z,1.92
2023-02-02T01:40:01.431Z,1.92
2023-02-02T01:41:01.534Z,1.92
2023-02-02T01:42:01.639Z,1.92
2023-02-02T01:43:01.734Z,1.92
2023-02-02T01:44:01.889Z,1.92
2023-02-02T01:45:01.997Z,1.92
2023-02-02T01:46:02.131Z,1.92
2023-02-02T01:47:02.191Z,1.84
2023-02-02T01:48:02.344Z,2
2023-02-02T01:49:02.452Z,2
2023-02-02T01:50:02.547Z,1.84
2023-02-02T01:51:02.654Z,1.92
2023-02-02T01:52:02.748Z,1.6
2023-02-02T01:53:02.853Z,1.84
2023-02-02T01:54:02.955Z,1.68
2023-02-02T01:55:03.103Z,1.92
2023-02-02T01:56:03.255Z,1.92
2023-02-02T01:57:03.356Z,2
2023-02-02T01:58:03.459Z,2.08
2023-02-02T01:59:03.568Z,2
2023-02-02T02:00:03.710Z,2.24
2023-02-02T02:01:03.901Z,2.08
2023-02-02T02:02:04.070Z,1.92
2023-02-02T02:03:04.117Z,1.92
2023-02-02T02:04:04.216Z,1.92
2023-02-02T02:05:04.317Z,1.92
2023-02-02T02:06:04.492Z,1.84
2023-02-02T02:07:04.621Z,1.92
2023-02-02T02:08:04.776Z,1.84
2023-02-02T02:09:04.924Z,1.84
2023-02-02T02:10:05.074Z,1.84
2023-02-02T02:11:05.228Z,2
2023-02-02T02:12:05.327Z,2
2023-02-02T02:13:05.448Z,2
2023-02-02T02:14:05.586Z,2
2023-02-02T02:15:05.730Z,2
2023-02-02T02:16:05.832Z,1.92
2023-02-02T02:17:05.983Z,1.92
2023-02-02T02:18:06.085Z,1.92
2023-02-02T02:19:06.237Z,1.84
2023-02-02T02:20:06.393Z,1.84
2023-02-02T02:21:06.495Z,1.92
2023-02-02T02:22:06.591Z,1.92
2023-02-02T02:23:06.693Z,1.84
2023-02-02T02:24:06.794Z,1.92
2023-02-02T02:25:06.893Z,1.68
2023-02-02T02:26:07.002Z,1.84
2023-02-02T02:27:07.097Z,1.84
2023-02-02T02:28:07.249Z,1.92
2023-02-02T02:29:07.353Z,1.84
2023-02-02T02:30:07.500Z,2
2023-02-02T02:31:07.676Z,2
2023-02-02T02:32:07.706Z,2
2023-02-02T02:33:07.838Z,1.84
2023-02-02T02:34:07.964Z,1.84
2023-02-02T02:35:08.064Z,1.84
2023-02-02T02:36:08.211Z,1.68
2023-02-02T02:37:08.318Z,1.68
2023-02-02T02:38:08.460Z,1.68
2023-02-02T02:39:08.563Z,1.68
2023-02-02T02:40:08.668Z,1.68
2023-02-02T02:41:08.769Z,1.6
2023-02-02T02:42:08.920Z,1.68
2023-02-02T02:43:09.070Z,1.68
2023-02-02T02:44:09.224Z,1.68
2023-02-02T02:45:09.330Z,1.68
2023-02-02T02:46:09.487Z,1.68
2023-02-02T02:47:09.531Z,1.6
2023-02-02T02:48:09.630Z,1.52
2023-02-02T02:49:09.734Z,1.44
2023-02-02T02:50:09.854Z,1.44
2023-02-02T02:51:09.979Z,1.52
2023-02-02T02:52:10.085Z,1.44
2023-02-02T02:53:10.198Z,1.52
2023-02-02T02:54:10.339Z,1.6
2023-02-02T02:55:10.492Z,1.84
2023-02-02T02:56:10.596Z,1.84
2023-02-02T02:57:10.746Z,1.84
2023-02-02T02:58:10.840Z,1.6
2023-02-02T02:59:10.953Z,1.92
2023-02-02T03:00:11.048Z,1.92
2023-02-02T03:01:11.220Z,1.84
2023-02-02T03:02:11.255Z,1.84
2023-02-02T03:03:11.402Z,1.84
2023-02-02T03:04:11.555Z,1.84
2023-02-02T03:05:11.688Z,1.84
2023-02-02T03:06:11.759Z,1.68
2023-02-02T03:07:11.860Z,1.84
2023-02-02T03:08:11.956Z,1.84
2023-02-02T03:09:12.059Z,1.84
2023-02-02T03:10:12.163Z,1.92
2023-02-02T03:11:12.308Z,1.92
2023-02-02T03:12:12.463Z,1.92
2023-02-02T03:13:12.566Z,2.24
2023-02-02T03:14:12.726Z,2.24
2023-02-02T03:15:12.871Z,2
2023-02-02T03:16:13.062Z,2
2023-02-02T03:17:13.177Z,2
2023-02-02T03:18:13.276Z,2
2023-02-02T03:19:13.436Z,2.08
2023-02-02T03:20:13.530Z,2.08
2023-02-02T03:21:13.628Z,2
2023-02-02T03:22:13.736Z,1.92
2023-02-02T03:23:13.840Z,1.92
2023-02-02T03:24:13.979Z,2
2023-02-02T03:25:14.134Z,2
2023-02-02T03:26:14.293Z,2
2023-02-02T03:27:14.386Z,2
2023-02-02T03:28:14.485Z,2.08
2023-02-02T03:29:14.588Z,2.32
2023-02-02T03:30:14.743Z,2.08
2023-02-02T03:31:14.911Z,2
2023-02-02T03:32:14.959Z,2.08
2023-02-02T03:33:15.041Z,2.08
2023-02-02T03:34:15.192Z,2.08
2023-02-02T03:35:15.353Z,2.08
2023-02-02T03:36:15.452Z,2.24
2023-02-02T03:37:15.564Z,2.24
2023-02-02T03:38:15.719Z,2.24
2023-02-02T03:39:15.806Z,2.24
2023-02-02T03:40:15.961Z,2.08
2023-02-02T03:41:16.109Z,2.24
2023-02-02T03:42:16.207Z,2.08
2023-02-02T03:43:16.307Z,2.08
2023-02-02T03:44:16.404Z,2.08
2023-02-02T03:45:16.517Z,2.24
2023-02-02T03:46:16.679Z,2.24
2023-02-02T03:47:16.761Z,2.32
2023-02-02T03:48:16.867Z,2.24
2023-02-02T03:49:16.962Z,2.24
2023-02-02T03:50:17.118Z,2.08
2023-02-02T03:51:17.217Z,2.24
2023-02-02T03:52:17.317Z,2.24
2023-02-02T03:53:17.467Z,2.24
2023-02-02T03:54:17.572Z,2.24
2023-02-02T03:55:17.672Z,2.24
2023-02-02T03:56:17.822Z,2.32
2023-02-02T03:57:17.976Z,2.32
2023-02-02T03:58:18.124Z,2.32
2023-02-02T03:59:18.237Z,2.4
2023-02-02T04:00:18.383Z,2.24
2023-02-02T04:01:18.527Z,2.32
2023-02-02T04:02:18.590Z,2.24
2023-02-02T04:03:18.684Z,2.24
2023-02-02T04:04:18.833Z,2.32
2023-02-02T04:05:18.988Z,2.24
2023-02-02T04:06:19.088Z,2.32
2023-02-02T04:07:19.200Z,2.24
2023-02-02T04:08:19.292Z,2.32
2023-02-02T04:09:19.441Z,2.32
2023-02-02T04:10:19.548Z,2.08
2023-02-02T04:11:19.674Z,2.32
2023-02-02T04:12:19.803Z,2.32
2023-02-02T04:13:19.954Z,2.4
2023-02-02T04:14:20.050Z,2.4
2023-02-02T04:15:20.155Z,2.32
2023-02-02T04:16:20.336Z,2.32
2023-02-02T04:17:20.359Z,2.32
2023-02-02T04:18:20.509Z,2.32
2023-02-02T04:19:20.611Z,2.32
2023-02-02T04:20:20.710Z,2.32
2023-02-02T04:21:20.863Z,2.32
2023-02-02T04:22:21.012Z,2.24
2023-02-02T04:23:21.116Z,2.32
2023-02-02T04:24:21.265Z,2.08
2023-02-02T04:25:21.415Z,2.24
2023-02-02T04:26:21.578Z,2.24
2023-02-02T04:27:21.671Z,2.32
2023-02-02T04:28:21.771Z,2.48
2023-02-02T04:29:21.888Z,2.32
2023-02-02T04:30:21.974Z,2.24
2023-02-02T04:31:22.148Z,2.24
2023-02-02T04:32:22.281Z,2.24
2023-02-02T04:33:22.378Z,2.24
2023-02-02T04:34:22.479Z,2.08
2023-02-02T04:35:22.821Z,2.24
2023-02-02T04:36:22.686Z,2.32
2023-02-02T04:37:22.831Z,2.32
2023-02-02T04:38:22.990Z,2.24
2023-02-02T04:39:23.144Z,2.32
2023-02-02T04:40:23.238Z,2.4
2023-02-02T04:41:23.366Z,2.4
2023-02-02T04:42:23.490Z,2.4
2023-02-02T04:43:23.625Z,2.4
2023-02-02T04:44:23.707Z,2.24
2023-02-02T04:45:24.244Z,2.32
2023-02-02T04:46:23.945Z,2.32
2023-02-02T04:47:24.052Z,2.32
2023-02-02T04:48:24.204Z,2.4
2023-02-02T04:49:24.364Z,2.24
2023-02-02T04:50:24.476Z,2.24
2023-02-02T04:51:24.605Z,2.32
2023-02-02T04:52:24.716Z,2.24
2023-02-02T04:53:24.817Z,2.32
2023-02-02T04:54:24.910Z,2.32
2023-02-02T04:55:25.236Z,2.4
2023-02-02T04:56:25.121Z,2.4
2023-02-02T04:57:25.216Z,2.32
2023-02-02T04:58:25.313Z,2.4
2023-02-02T04:59:25.416Z,2.4
2023-02-02T05:00:25.582Z,2.32
2023-02-02T05:01:25.726Z,2.24
2023-02-02T05:02:25.774Z,2.32
2023-02-02T05:03:25.883Z,2.32
2023-02-02T05:04:26.032Z,2.32
2023-02-02T05:05:26.398Z,2.4
2023-02-02T05:06:26.176Z,2.32
2023-02-02T05:07:26.274Z,2.32
2023-02-02T05:08:26.427Z,2.4
2023-02-02T05:09:26.550Z,2.4
2023-02-02T05:10:26.650Z,2.32
2023-02-02T05:11:26.740Z,2.4
2023-02-02T05:12:26.886Z,2.4
2023-02-02T05:13:26.985Z,2.4
2023-02-02T05:14:27.138Z,2.48
2023-02-02T05:15:27.328Z,2.4
2023-02-02T05:16:28.999Z,2.4
2023-02-02T05:17:27.489Z,2.4
2023-02-02T05:18:27.645Z,2.32
2023-02-02T05:19:27.796Z,2.4
2023-02-02T05:20:27.947Z,2.4
2023-02-02T05:21:28.108Z,2.4
2023-02-02T05:22:28.197Z,2.48
2023-02-02T05:23:28.310Z,2.4
2023-02-02T05:24:28.465Z,2.4
2023-02-02T05:25:28.558Z,2.4
2023-02-02T05:26:28.768Z,2.64
2023-02-02T05:27:28.804Z,2.64
2023-02-02T05:28:28.912Z,2.4
2023-02-02T05:29:29.063Z,2.4
2023-02-02T05:30:29.208Z,2.4
2023-02-02T05:31:29.374Z,2.4
2023-02-02T05:32:29.414Z,2.4
2023-02-02T05:33:29.564Z,2.48
2023-02-02T05:34:29.721Z,2.48
2023-02-02T05:35:29.820Z,2.48
2023-02-02T05:36:29.969Z,2.48
2023-02-02T05:37:30.074Z,2.48
2023-02-02T05:38:30.173Z,2.48
2023-02-02T05:39:30.328Z,2.48
2023-02-02T05:40:30.475Z,2.64
2023-02-02T05:41:30.577Z,2.48
2023-02-02T05:42:30.676Z,2.48
2023-02-02T05:43:30.785Z,2.48
2023-02-02T05:44:30.886Z,2.48
2023-02-02T05:45:30.989Z,2.48
2023-02-02T05:46:31.080Z,2.48
2023-02-02T05:47:31.187Z,2.48
2023-02-02T05:48:31.300Z,2.48
2023-02-02T05:49:31.437Z,2.64
2023-02-02T05:50:31.549Z,2.48
2023-02-02T05:51:31.688Z,2.48
2023-02-02T05:52:31.841Z,2.4
2023-02-02T05:53:31.996Z,2.48
2023-02-02T05:54:32.144Z,2.64
2023-02-02T05:55:32.247Z,2.48
2023-02-02T05:56:32.397Z,2.48
2023-02-02T05:57:32.517Z,2.48
2023-02-02T05:58:32.628Z,2.48
2023-02-02T05:59:32.748Z,2.48
2023-02-02T06:00:32.907Z,2.64
2023-02-02T06:01:33.051Z,2.48
2023-02-02T06:02:33.205Z,2.48
2023-02-02T06:03:33.438Z,2.4
2023-02-02T06:04:33.459Z,2.32
2023-02-02T06:05:33.559Z,2.48
2023-02-02T06:06:33.665Z,2.48
2023-02-02T06:07:33.761Z,2.48
2023-02-02T06:08:33.922Z,2.48
2023-02-02T06:09:34.019Z,2.64
2023-02-02T06:10:34.119Z,2.48
2023-02-02T06:11:34.274Z,2.4
2023-02-02T06:12:34.374Z,2.4
2023-02-02T06:13:34.475Z,2.48
2023-02-02T06:14:34.571Z,2.4
2023-02-02T06:15:34.749Z,2.64
2023-02-02T06:16:34.782Z,2.4
2023-02-02T06:17:34.879Z,2.32
2023-02-02T06:18:35.034Z,2.4
2023-02-02T06:19:35.138Z,2.48
2023-02-02T06:20:35.239Z,2.48
2023-02-02T06:21:35.338Z,2.48
2023-02-02T06:22:35.446Z,2.48
2023-02-02T06:23:35.534Z,2.48
2023-02-02T06:24:35.682Z,2.48
2023-02-02T06:25:35.803Z,2.48
2023-02-02T06:26:35.950Z,2.48
2023-02-02T06:27:36.043Z,2.4
2023-02-02T06:28:36.152Z,2.4
2023-02-02T06:29:36.249Z,2.48
2023-02-02T06:30:36.419Z,2.48
2023-02-02T06:31:36.691Z,2.48
2023-02-02T06:32:36.598Z,2.4
2023-02-02T06:33:36.702Z,2.4
2023-02-02T06:34:36.862Z,2.4
2023-02-02T06:35:36.958Z,2.4
2023-02-02T06:36:37.103Z,2.48
2023-02-02T06:37:37.205Z,2.4
2023-02-02T06:38:37.359Z,2.64
2023-02-02T06:39:37.465Z,2.48
2023-02-02T06:40:37.603Z,2.48
2023-02-02T06:41:37.715Z,2.64
2023-02-02T06:42:37.812Z,2.48
2023-02-02T06:43:37.976Z,2.72
2023-02-02T06:44:38.110Z,2.64
2023-02-02T06:45:38.231Z,2.48
2023-02-02T06:46:38.420Z,2.48
2023-02-02T06:47:38.532Z,2.48
2023-02-02T06:48:38.629Z,2.48
2023-02-02T06:49:38.723Z,2.64
2023-02-02T06:50:38.877Z,2.4
2023-02-02T06:51:38.980Z,2.48
2023-02-02T06:52:39.081Z,2.64
2023-02-02T06:53:39.231Z,2.64
2023-02-02T06:54:39.331Z,2.48
2023-02-02T06:55:39.482Z,2.48
2023-02-02T06:56:39.589Z,2.48
2023-02-02T06:57:39.736Z,2.48
2023-02-02T06:58:39.839Z,2.48
2023-02-02T06:59:39.949Z,2.4
2023-02-02T07:00:40.089Z,2.48
2023-02-02T07:01:40.237Z,2.48
2023-02-02T07:02:40.382Z,2.48
2023-02-02T07:03:40.451Z,2.4
2023-02-02T07:04:40.616Z,2.48
2023-02-02T07:05:40.708Z,2.48
2023-02-02T07:06:40.805Z,2.48
2023-02-02T07:07:40.898Z,2.64
2023-02-02T07:08:41.057Z,2.48
2023-02-02T07:09:41.158Z,2.64
2023-02-02T07:11:09.131Z,2.48
2023-02-02T07:11:41.443Z,2.4
2023-02-02T07:12:41.459Z,2.4
2023-02-02T07:13:41.628Z,2.48
2023-02-02T07:14:41.717Z,2.4
2023-02-02T07:15:41.861Z,2.4
2023-02-02T07:16:42.020Z,2.4
2023-02-02T07:17:42.162Z,2.4
2023-02-02T07:18:42.315Z,2.4
2023-02-02T07:19:42.419Z,2.48
2023-02-02T07:20:42.526Z,2.48
2023-02-02T07:21:42.685Z,2.64
2023-02-02T07:22:42.819Z,2.48
2023-02-02T07:23:42.925Z,2.48
2023-02-02T07:24:43.127Z,2.48
2023-02-02T07:25:43.943Z,2.48
2023-02-02T07:26:43.362Z,2.48
2023-02-02T07:27:43.428Z,2.4
2023-02-02T07:28:43.615Z,2.48
2023-02-02T07:29:43.659Z,2.64
2023-02-02T07:30:43.889Z,2.64
2023-02-02T07:31:44.010Z,2.72
2023-02-02T07:32:44.084Z,2.72
2023-02-02T07:33:44.233Z,2.8
2023-02-02T07:34:44.387Z,2.72
2023-02-02T07:35:44.486Z,2.72
2023-02-02T07:36:44.639Z,2.64
2023-02-02T07:37:44.740Z,2.8
2023-02-02T07:38:44.848Z,2.72
2023-02-02T07:39:44.998Z,2.64
2023-02-02T07:40:45.095Z,2.64
2023-02-02T07:41:45.213Z,2.64
2023-02-02T07:42:46.419Z,2.72
2023-02-02T07:43:45.452Z,2.72
2023-02-02T07:44:45.556Z,2.64
2023-02-02T07:45:45.708Z,2.72
2023-02-02T07:46:45.884Z,2.72
2023-02-02T07:47:45.905Z,2.72
2023-02-02T07:48:46.072Z,2.8
2023-02-02T07:49:46.216Z,2.8
2023-02-02T07:50:46.311Z,2.72
2023-02-02T07:51:47.740Z,2.72
2023-02-02T07:52:46.511Z,2.72
2023-02-02T07:53:46.667Z,2.72
2023-02-02T07:54:46.764Z,2.72
2023-02-02T07:55:46.921Z,2.64
2023-02-02T07:56:47.072Z,2.72
2023-02-02T07:57:47.174Z,2.8
2023-02-02T07:58:47.336Z,2.72
2023-02-02T07:59:47.434Z,2.8
2023-02-02T08:00:47.613Z,2.8
2023-02-02T08:01:47.680Z,2.72
2023-02-02T08:02:47.772Z,2.8
2023-02-02T08:03:47.877Z,2.8
2023-02-02T08:04:47.989Z,2.8
2023-02-02T08:05:48.093Z,2.72
2023-02-02T08:06:48.186Z,2.72
2023-02-02T08:07:48.335Z,2.72
2023-02-02T08:08:48.437Z,2.8
2023-02-02T08:09:48.540Z,2.72
2023-02-02T08:10:48.643Z,2.72
2023-02-02T08:11:48.739Z,2.72
2023-02-02T08:12:48.897Z,2.8
2023-02-02T08:13:48.999Z,2.8
2023-02-02T08:14:49.144Z,2.88
2023-02-02T08:15:49.327Z,2.8
2023-02-02T08:16:49.402Z,2.8
2023-02-02T08:17:49.565Z,2.8
2023-02-02T08:18:49.719Z,2.8
2023-02-02T08:19:49.806Z,2.72
2023-02-02T08:20:49.955Z,2.8
2023-02-02T08:21:50.058Z,2.72
2023-02-02T08:22:50.204Z,2.88
2023-02-02T08:23:50.316Z,2.8
2023-02-02T08:24:50.463Z,2.8
2023-02-02T08:25:50.624Z,2.8
2023-02-02T08:26:50.829Z,2.88
2023-02-02T08:27:50.862Z,2.8
2023-02-02T08:28:51.019Z,3.04
2023-02-02T08:29:51.166Z,2.88
2023-02-02T08:30:51.358Z,2.88
2023-02-02T08:31:51.465Z,3.04
2023-02-02T08:32:51.520Z,2.88
2023-02-02T08:33:51.698Z,3.04
2023-02-02T08:34:51.821Z,2.88
2023-02-02T08:35:51.871Z,2.88
2023-02-02T08:36:51.981Z,3.04
2023-02-02T08:37:52.127Z,3.12
2023-02-02T08:38:52.244Z,3.12
2023-02-02T08:39:52.379Z,3.12
2023-02-02T08:40:52.540Z,3.12
2023-02-02T08:41:52.633Z,3.12
2023-02-02T08:42:52.787Z,3.2
2023-02-02T08:43:52.888Z,3.12
2023-02-02T08:45:59.615Z,3.2
2023-02-02T08:46:53.213Z,3.28
2023-02-02T08:48:05.446Z,3.28
2023-02-02T08:48:53.399Z,3.2
2023-02-02T08:49:53.551Z,3.2
2023-02-02T08:50:53.669Z,3.2
2023-02-02T08:51:53.796Z,3.2
2023-02-02T08:52:53.948Z,3.28
2023-02-02T08:53:54.103Z,3.2
2023-02-02T08:54:54.197Z,3.28
2023-02-02T08:55:54.301Z,3.28
2023-02-02T08:56:54.406Z,3.28
2023-02-02T08:57:54.556Z,3.28
2023-02-02T08:58:54.710Z,3.28
2023-02-02T08:59:54.812Z,3.28
2023-02-02T09:00:54.951Z,3.28
2023-02-02T09:01:55.131Z,3.2
2023-02-02T09:02:55.165Z,3.2
2023-02-02T09:03:55.324Z,3.2
2023-02-02T09:04:55.467Z,3.2
2023-02-02T09:05:55.567Z,3.28
2023-02-02T09:06:55.678Z,3.28
2023-02-02T09:07:55.780Z,3.2
2023-02-02T09:08:55.923Z,3.2
2023-02-02T09:09:56.076Z,3.12
2023-02-02T09:10:56.227Z,3.2
2023-02-02T09:11:56.376Z,3.2
2023-02-02T09:12:56.475Z,3.12
2023-02-02T09:13:56.584Z,3.2
2023-02-02T09:14:56.679Z,3.12
2023-02-02T09:15:56.795Z,3.12
2023-02-02T09:16:56.964Z,3.12
2023-02-02T09:17:57.090Z,3.12
2023-02-02T09:18:57.188Z,3.2
2023-02-02T09:19:57.295Z,3.12
2023-02-02T09:20:57.439Z,3.12
2023-02-02T09:21:57.541Z,3.12
2023-02-02T09:22:57.648Z,3.04
2023-02-02T09:23:57.742Z,3.12
2023-02-02T09:24:57.899Z,3.2
2023-02-02T09:25:58.047Z,3.28
2023-02-02T09:26:58.265Z,3.28
2023-02-02T09:27:58.302Z,3.44
2023-02-02T09:28:58.406Z,3.44
2023-02-02T09:29:58.550Z,3.28
2023-02-02T09:30:58.726Z,3.28
2023-02-02T09:31:58.822Z,3.28
2023-02-02T09:32:58.905Z,3.28
2023-02-02T09:33:59.020Z,3.44
2023-02-02T09:34:59.191Z,3.44
2023-02-02T09:35:59.277Z,3.44
2023-02-02T09:36:59.417Z,3.44
2023-02-02T09:37:59.518Z,3.44
2023-02-02T09:38:59.614Z,3.52
2023-02-02T09:39:59.712Z,3.68
2023-02-02T09:40:59.868Z,3.6
2023-02-02T09:41:59.973Z,3.68
2023-02-02T09:43:00.136Z,3.6
2023-02-02T09:44:00.228Z,3.6
2023-02-02T09:45:00.333Z,3.52
2023-02-02T09:46:00.465Z,3.44
2023-02-02T09:47:00.590Z,3.52
2023-02-02T09:48:00.674Z,3.52
2023-02-02T09:49:00.783Z,3.6
2023-02-02T09:50:00.893Z,3.52
2023-02-02T09:51:00.983Z,3.52
2023-02-02T09:52:01.135Z,3.52
2023-02-02T09:53:01.232Z,3.6
2023-02-02T09:54:01.333Z,3.6
2023-02-02T09:55:01.501Z,3.52
2023-02-02T09:56:01.635Z,3.84
2023-02-02T09:57:01.786Z,3.68
2023-02-02T09:58:01.890Z,3.68
2023-02-02T09:59:10.247Z,3.6
2023-02-02T10:00:02.106Z,3.52
2023-02-02T10:01:02.286Z,3.6
2023-02-02T10:02:02.381Z,3.6
2023-02-02T10:03:02.496Z,3.6
2023-02-02T10:04:02.678Z,3.68
2023-02-02T10:05:02.708Z,3.68
2023-02-02T10:06:02.858Z,3.68
2023-02-02T10:07:02.959Z,3.84
2023-02-02T10:08:03.059Z,3.68
2023-02-02T10:09:03.180Z,3.84
2023-02-02T10:10:03.310Z,3.84
2023-02-02T10:11:03.405Z,3.84
2023-02-02T10:12:03.558Z,3.84
2023-02-02T10:13:03.662Z,3.84
2023-02-02T10:14:03.775Z,3.92
2023-02-02T10:15:03.945Z,3.84
2023-02-02T10:16:04.233Z,3.68
2023-02-02T10:17:04.118Z,3.68
2023-02-02T10:18:05.896Z,3.92
2023-02-02T10:19:04.382Z,3.92
2023-02-02T10:20:04.477Z,3.92
2023-02-02T10:21:04.620Z,3.92
2023-02-02T10:22:04.771Z,3.84
2023-02-02T10:23:04.874Z,3.92
2023-02-02T10:24:04.978Z,4.08
2023-02-02T10:25:05.098Z,3.92
2023-02-02T10:26:05.229Z,3.92
2023-02-02T10:27:05.335Z,4
2023-02-02T10:28:05.484Z,3.84
2023-02-02T10:29:05.586Z,3.68
2023-02-02T10:30:05.688Z,3.68
2023-02-02T10:31:05.901Z,3.68
2023-02-02T10:32:05.955Z,3.6
2023-02-02T10:33:05.991Z,3.84
2023-02-02T10:34:06.143Z,3.84
2023-02-02T10:35:13.358Z,3.92
2023-02-02T10:36:06.410Z,3.92
2023-02-02T10:37:06.548Z,4
2023-02-02T10:38:07.449Z,3.92
2023-02-02T10:39:06.751Z,4
2023-02-02T10:40:06.880Z,3.92
2023-02-02T10:41:06.952Z,4
2023-02-02T10:42:07.058Z,3.92
2023-02-02T10:43:07.156Z,4
2023-02-02T10:44:07.309Z,4
2023-02-02T10:45:07.469Z,4.08
2023-02-02T10:46:07.656Z,4.08
2023-02-02T10:47:07.719Z,4.08
2023-02-02T10:48:07.865Z,4.08
2023-02-02T10:49:07.968Z,4.16
2023-02-02T10:50:08.118Z,4.16
2023-02-02T10:51:08.265Z,4.08
2023-02-02T10:52:08.428Z,4.32
2023-02-02T10:53:08.568Z,4
2023-02-02T10:54:08.723Z,4.08
2023-02-02T10:55:08.872Z,3.92
2023-02-02T10:56:09.033Z,4
2023-02-02T10:57:09.126Z,4
2023-02-02T10:58:09.272Z,4
2023-02-02T10:59:09.429Z,4
2023-02-02T11:00:09.547Z,4
2023-02-02T11:01:09.729Z,4.08
2023-02-02T11:02:20.262Z,4
2023-02-02T11:03:09.974Z,4
2023-02-02T11:04:10.036Z,4
2023-02-02T11:05:10.189Z,4
2023-02-02T11:06:10.289Z,4.08
2023-02-02T11:07:10.388Z,3.92
2023-02-02T11:08:10.491Z,3.92
2023-02-02T11:09:10.589Z,3.92
2023-02-02T11:10:10.745Z,3.92
2023-02-02T11:11:10.846Z,3.84
2023-02-02T11:12:10.948Z,3.84
2023-02-02T11:13:11.095Z,3.84
2023-02-02T11:14:11.199Z,3.84
2023-02-02T11:15:11.309Z,3.84
2023-02-02T11:16:11.410Z,3.92
2023-02-02T11:17:11.560Z,3.92
2023-02-02T11:18:11.652Z,3.92
2023-02-02T11:19:11.811Z,3.92
2023-02-02T11:20:11.907Z,4.08
2023-02-02T11:21:12.058Z,3.92
2023-02-02T11:22:12.162Z,4
2023-02-02T11:23:12.268Z,3.92
2023-02-02T11:24:12.374Z,3.84
2023-02-02T11:25:12.523Z,3.92
2023-02-02T11:26:12.618Z,4
2023-02-02T11:27:12.773Z,3.92
2023-02-02T11:28:12.871Z,4
2023-02-02T11:29:12.975Z,4
2023-02-02T11:30:13.102Z,3.92
2023-02-02T11:31:13.258Z,4
2023-02-02T11:32:13.289Z,3.92
2023-02-02T11:33:13.376Z,3.92
2023-02-02T11:34:13.475Z,3.92
2023-02-02T11:35:13.579Z,3.92
2023-02-02T11:36:13.685Z,4
2023-02-02T11:37:13.803Z,3.92
2023-02-02T11:38:13.945Z,4
2023-02-02T11:39:14.042Z,3.92
2023-02-02T11:40:14.140Z,4
2023-02-02T11:41:14.287Z,4.16
2023-02-02T11:42:14.393Z,4.08
2023-02-02T11:43:14.504Z,4
2023-02-02T11:44:14.637Z,3.84
2023-02-02T11:45:14.747Z,4.08
2023-02-02T11:46:14.915Z,3.92
2023-02-02T11:47:14.995Z,4
2023-02-02T11:48:15.101Z,4
2023-02-02T11:49:15.247Z,4
2023-02-02T11:50:15.364Z,4
2023-02-02T11:51:15.593Z,4
2023-02-02T11:52:15.659Z,4
2023-02-02T11:53:15.754Z,4
2023-02-02T11:54:15.864Z,3.92
2023-02-02T11:55:15.960Z,4
2023-02-02T11:56:16.065Z,4
2023-02-02T11:57:16.175Z,4.08
2023-02-02T11:58:16.324Z,4.16
2023-02-02T11:59:16.465Z,4.08
2023-02-02T12:00:16.614Z,4
2023-02-02T12:01:16.743Z,4
2023-02-02T12:02:16.955Z,3.92
2023-02-02T12:03:17.026Z,4
2023-02-02T12:04:17.323Z,3.92
2023-02-02T12:05:17.290Z,4
2023-02-02T12:06:17.387Z,4.08
2023-02-02T12:07:17.556Z,4
2023-02-02T12:08:17.731Z,4
2023-02-02T12:09:17.851Z,4.08
2023-02-02T12:10:17.977Z,4.08
2023-02-02T12:11:18.082Z,4.08
2023-02-02T12:12:18.233Z,4.08
2023-02-02T12:13:18.382Z,4.4
2023-02-02T12:14:18.507Z,4.32
2023-02-02T12:15:18.592Z,4.08
2023-02-02T12:16:18.796Z,4.08
2023-02-02T12:17:18.838Z,4.16
2023-02-02T12:18:18.948Z,4.08
2023-02-02T12:19:19.087Z,4
2023-02-02T12:20:19.200Z,4.08
2023-02-02T12:21:19.301Z,4.08
2023-02-02T12:22:19.447Z,4.08
2023-02-02T12:23:19.604Z,4.08
2023-02-02T12:24:19.753Z,4.16
2023-02-02T12:25:19.853Z,4.32
2023-02-02T12:26:20.091Z,4.32
2023-02-02T12:27:20.057Z,4.4
2023-02-02T12:28:20.164Z,4.32
2023-02-02T12:29:20.274Z,4.4
2023-02-02T12:30:20.367Z,4.32
2023-02-02T12:31:20.532Z,4.16
2023-02-02T12:32:20.611Z,4.4
2023-02-02T12:33:20.776Z,4.32
2023-02-02T12:34:20.885Z,4.48
2023-02-02T12:35:20.965Z,4.4
2023-02-02T12:36:21.064Z,4.16
2023-02-02T12:37:21.169Z,4.16
2023-02-02T12:38:21.274Z,4.08
2023-02-02T12:39:21.370Z,4.08
2023-02-02T12:40:21.470Z,4
2023-02-02T12:41:21.581Z,4
2023-02-02T12:42:21.674Z,4.08
2023-02-02T12:43:21.829Z,4.16
2023-02-02T12:44:21.942Z,4.16
2023-02-02T12:45:22.033Z,4.08
2023-02-02T12:46:22.131Z,4.32
2023-02-02T12:47:22.295Z,4.16
2023-02-02T12:48:22.390Z,4
2023-02-02T12:49:22.488Z,4.08
2023-02-02T12:50:22.760Z,4.16
2023-02-02T12:51:22.742Z,4.32
2023-02-02T12:52:22.851Z,4.16
2023-02-02T12:53:22.948Z,4.16
2023-02-02T12:54:32.471Z,4.4
2023-02-02T12:55:23.200Z,4.32
2023-02-02T12:56:23.292Z,4.16
2023-02-02T12:57:23.424Z,4.08
2023-02-02T12:58:23.547Z,4.08
2023-02-02T12:59:23.646Z,4
2023-02-02T13:00:24.062Z,4.16
2023-02-02T13:01:23.979Z,4.32
2023-02-02T13:02:24.063Z,4.16
2023-02-02T13:03:24.154Z,4.16
2023-02-02T13:04:24.255Z,4.16
2023-02-02T13:05:24.410Z,4.32
2023-02-02T13:06:24.507Z,4.4
2023-02-02T13:07:24.658Z,4.48
2023-02-02T13:08:24.769Z,4.4
2023-02-02T13:09:24.916Z,4.32
2023-02-02T13:10:25.297Z,4.72
2023-02-02T13:11:25.224Z,4.64
2023-02-02T13:12:25.316Z,4.4
2023-02-02T13:13:25.480Z,4.4
2023-02-02T13:14:25.589Z,4.16
2023-02-02T13:15:25.687Z,4.16
2023-02-02T13:16:25.950Z,4.4
2023-02-02T13:17:25.933Z,4.4
2023-02-02T13:18:26.029Z,4.16
2023-02-02T13:19:26.128Z,4.08
2023-02-02T13:20:26.473Z,4.16
2023-02-02T13:21:26.330Z,4.16
2023-02-02T13:22:26.439Z,4.16
2023-02-02T13:23:26.550Z,4.08
2023-02-02T13:24:26.659Z,4
2023-02-02T13:25:27.031Z,4.08
2023-02-02T13:26:27.010Z,4
2023-02-02T13:27:27.001Z,3.92
2023-02-02T13:28:27.094Z,4
2023-02-02T13:29:27.246Z,3.92
2023-02-02T13:30:27.413Z,3.92
2023-02-02T13:31:27.710Z,3.92
2023-02-02T13:32:27.670Z,3.92
2023-02-02T13:33:27.752Z,3.84